SJV874 WIII-WIPP
Flight info
| Callsign | SJV874 |
|---|---|
| Flight time | 0h 45m |
| Altitude | 32000 |
| Route | DOLTA W12 GUSKO |
| Aircraft | A320/M-SDE3FGHIRWY/LB1 |
Departure
| Time | 2026-05-09 14:11 |
|---|---|
| Airport | Soekarno-Hatta International Airport (WIII) |
Arrival
| Time | 2026-05-09 14:57 |
|---|---|
| Airport | Sultan Mahmud Badaruddin II Airport (WIPP) |
| Time | Latitude | Longitude | Altitude | Speed | Heading |
|---|---|---|---|---|---|
| 2026-05-09 13:46 | -6.12164 | 106.65091 | 36 ft | 0 kts | 112° |
| 2026-05-09 14:00 | -6.12158 | 106.65076 | 36 ft | 3 kts | 112° |
| 2026-05-09 14:01 | -6.12150 | 106.65057 | 36 ft | 3 kts | 112° |
| 2026-05-09 14:01 | -6.12142 | 106.65037 | 36 ft | 3 kts | 112° |
| 2026-05-09 14:01 | -6.12135 | 106.65021 | 36 ft | 3 kts | 110° |
| 2026-05-09 14:01 | -6.12129 | 106.65001 | 34 ft | 3 kts | 94° |
| 2026-05-09 14:02 | -6.12130 | 106.64981 | 34 ft | 3 kts | 75° |
| 2026-05-09 14:02 | -6.12134 | 106.64968 | 37 ft | 0 kts | 68° |
| 2026-05-09 14:04 | -6.12134 | 106.64969 | 37 ft | 0 kts | 68° |
| 2026-05-09 14:05 | -6.12131 | 106.64976 | 38 ft | 2 kts | 67° |
| 2026-05-09 14:06 | -6.12120 | 106.64995 | 38 ft | 4 kts | 50° |
| 2026-05-09 14:06 | -6.12086 | 106.65006 | 38 ft | 6 kts | 12° |
| 2026-05-09 14:06 | -6.12036 | 106.65016 | 38 ft | 8 kts | 9° |
| 2026-05-09 14:06 | -6.11971 | 106.65026 | 38 ft | 10 kts | 9° |
| 2026-05-09 14:07 | -6.11897 | 106.65005 | 39 ft | 12 kts | 335° |
| 2026-05-09 14:07 | -6.11878 | 106.64930 | 38 ft | 13 kts | 248° |
| 2026-05-09 14:07 | -6.11916 | 106.64834 | 39 ft | 16 kts | 248° |
| 2026-05-09 14:07 | -6.11960 | 106.64723 | 39 ft | 18 kts | 249° |
| 2026-05-09 14:08 | -6.12010 | 106.64597 | 38 ft | 21 kts | 248° |
| 2026-05-09 14:08 | -6.12067 | 106.64456 | 39 ft | 23 kts | 248° |
| 2026-05-09 14:08 | -6.12129 | 106.64300 | 39 ft | 25 kts | 247° |
| 2026-05-09 14:08 | -6.12196 | 106.64134 | 39 ft | 27 kts | 248° |
| 2026-05-09 14:09 | -6.12261 | 106.63966 | 38 ft | 11 kts | 254° |
| 2026-05-09 14:09 | -6.12233 | 106.63897 | 39 ft | 11 kts | 314° |
| 2026-05-09 14:09 | -6.12160 | 106.63896 | 41 ft | 12 kts | 18° |
| 2026-05-09 14:09 | -6.12097 | 106.63906 | 41 ft | 6 kts | 360° |
| 2026-05-09 14:10 | -6.12082 | 106.63927 | 40 ft | 0 kts | 73° |
| 2026-05-09 14:10 | -6.12079 | 106.63935 | 41 ft | 12 kts | 73° |
| 2026-05-09 14:10 | -6.11952 | 106.64258 | 40 ft | 85 kts | 67° |
| 2026-05-09 14:11 | -6.11659 | 106.64989 | 43 ft | 138 kts | 68° |
| 2026-05-09 14:11 | -6.11249 | 106.66016 | 155 ft | 170 kts | 68° |
| 2026-05-09 14:11 | -6.10955 | 106.66755 | 623 ft | 168 kts | 69° |
| 2026-05-09 14:11 | -6.10501 | 106.67840 | 1233 ft | 169 kts | 58° |
| 2026-05-09 14:12 | -6.09268 | 106.68807 | 1930 ft | 179 kts | 31° |
| 2026-05-09 14:12 | -6.08118 | 106.69487 | 2180 ft | 204 kts | 32° |
| 2026-05-09 14:12 | -6.07266 | 106.70006 | 2400 ft | 220 kts | 32° |
| 2026-05-09 14:12 | -6.05891 | 106.70851 | 2762 ft | 244 kts | 32° |
| 2026-05-09 14:13 | -6.04380 | 106.71788 | 3243 ft | 263 kts | 33° |
| 2026-05-09 14:14 | -5.93614 | 106.71359 | 8810 ft | 296 kts | 291° |
| 2026-05-09 14:15 | -5.92925 | 106.69400 | 9593 ft | 299 kts | 288° |
| 2026-05-09 14:15 | -5.92253 | 106.67409 | 10218 ft | 307 kts | 289° |
| 2026-05-09 14:15 | -5.91489 | 106.65319 | 10395 ft | 330 kts | 291° |
| 2026-05-09 14:15 | -5.90598 | 106.63118 | 10569 ft | 350 kts | 293° |
| 2026-05-09 14:16 | -5.89604 | 106.60846 | 11041 ft | 358 kts | 294° |
| 2026-05-09 14:16 | -5.88558 | 106.58569 | 11626 ft | 362 kts | 295° |
| 2026-05-09 14:16 | -5.87476 | 106.56271 | 12202 ft | 365 kts | 296° |
| 2026-05-09 14:16 | -5.86381 | 106.53962 | 12792 ft | 368 kts | 296° |
| 2026-05-09 14:17 | -5.85277 | 106.51627 | 13370 ft | 372 kts | 295° |
| 2026-05-09 14:17 | -5.84168 | 106.49267 | 13899 ft | 375 kts | 295° |
| 2026-05-09 14:17 | -5.83054 | 106.46888 | 14412 ft | 378 kts | 295° |
| 2026-05-09 14:17 | -5.81931 | 106.44483 | 14906 ft | 382 kts | 295° |
| 2026-05-09 14:18 | -5.80801 | 106.42055 | 15401 ft | 385 kts | 295° |
| 2026-05-09 14:18 | -5.79665 | 106.39604 | 15881 ft | 388 kts | 295° |
| 2026-05-09 14:18 | -5.78521 | 106.37131 | 16357 ft | 392 kts | 295° |
| 2026-05-09 14:18 | -5.77369 | 106.34642 | 16835 ft | 395 kts | 295° |
| 2026-05-09 14:19 | -5.76203 | 106.32126 | 17308 ft | 399 kts | 295° |
| 2026-05-09 14:19 | -5.74923 | 106.29650 | 17770 ft | 402 kts | 303° |
| 2026-05-09 14:19 | -5.73201 | 106.27427 | 18229 ft | 405 kts | 314° |
| 2026-05-09 14:19 | -5.71064 | 106.25578 | 18634 ft | 407 kts | 326° |
| 2026-05-09 14:20 | -5.68629 | 106.24128 | 19038 ft | 409 kts | 332° |
| 2026-05-09 14:20 | -5.66135 | 106.22738 | 19444 ft | 412 kts | 332° |
| 2026-05-09 14:20 | -5.63626 | 106.21329 | 19871 ft | 414 kts | 332° |
| 2026-05-09 14:21 | -5.58613 | 106.18485 | 20709 ft | 419 kts | 331° |
| 2026-05-09 14:21 | -5.56064 | 106.17039 | 21121 ft | 422 kts | 332° |
| 2026-05-09 14:21 | -5.53467 | 106.15571 | 21524 ft | 424 kts | 332° |
| 2026-05-09 14:21 | -5.50918 | 106.14133 | 21911 ft | 427 kts | 332° |
| 2026-05-09 14:22 | -5.48324 | 106.12671 | 22286 ft | 430 kts | 332° |
| 2026-05-09 14:22 | -5.45708 | 106.11197 | 22665 ft | 432 kts | 332° |
| 2026-05-09 14:22 | -5.43083 | 106.09714 | 23032 ft | 435 kts | 332° |
| 2026-05-09 14:22 | -5.40438 | 106.08218 | 23387 ft | 437 kts | 332° |
| 2026-05-09 14:23 | -5.37749 | 106.06698 | 23705 ft | 439 kts | 332° |
| 2026-05-09 14:23 | -5.35113 | 106.05210 | 24001 ft | 441 kts | 332° |
| 2026-05-09 14:23 | -5.32426 | 106.03696 | 24297 ft | 443 kts | 332° |
| 2026-05-09 14:23 | -5.29729 | 106.02173 | 24613 ft | 445 kts | 332° |
| 2026-05-09 14:24 | -5.27026 | 106.00646 | 24898 ft | 447 kts | 332° |
| 2026-05-09 14:24 | -5.24304 | 105.99112 | 25196 ft | 449 kts | 332° |
| 2026-05-09 14:24 | -5.21576 | 105.97576 | 25497 ft | 451 kts | 332° |
| 2026-05-09 14:24 | -5.18832 | 105.96027 | 25797 ft | 453 kts | 332° |
| 2026-05-09 14:25 | -5.16077 | 105.94472 | 26085 ft | 455 kts | 332° |
| 2026-05-09 14:25 | -5.13316 | 105.92914 | 26384 ft | 457 kts | 332° |
| 2026-05-09 14:25 | -5.10540 | 105.91346 | 26674 ft | 458 kts | 332° |
| 2026-05-09 14:25 | -5.07764 | 105.89766 | 26960 ft | 460 kts | 332° |
| 2026-05-09 14:26 | -5.04981 | 105.88174 | 27255 ft | 462 kts | 332° |
| 2026-05-09 14:26 | -5.02181 | 105.86572 | 27540 ft | 464 kts | 332° |
| 2026-05-09 14:26 | -4.99371 | 105.84966 | 27832 ft | 465 kts | 332° |
| 2026-05-09 14:26 | -4.96557 | 105.83355 | 28133 ft | 467 kts | 332° |
| 2026-05-09 14:27 | -4.93719 | 105.81733 | 28433 ft | 469 kts | 332° |
| 2026-05-09 14:27 | -4.90884 | 105.80116 | 28731 ft | 470 kts | 332° |
| 2026-05-09 14:27 | -4.88023 | 105.78489 | 29034 ft | 472 kts | 332° |
| 2026-05-09 14:27 | -4.85160 | 105.76860 | 29327 ft | 474 kts | 332° |
| 2026-05-09 14:28 | -4.82295 | 105.75232 | 29681 ft | 474 kts | 332° |
| 2026-05-09 14:28 | -4.79429 | 105.73606 | 30112 ft | 472 kts | 332° |
| 2026-05-09 14:28 | -4.76619 | 105.72009 | 30494 ft | 470 kts | 332° |
| 2026-05-09 14:28 | -4.73775 | 105.70392 | 30877 ft | 469 kts | 332° |
| 2026-05-09 14:29 | -4.70938 | 105.68780 | 31252 ft | 468 kts | 332° |
| 2026-05-09 14:29 | -4.68106 | 105.67170 | 31632 ft | 467 kts | 332° |
| 2026-05-09 14:29 | -4.65284 | 105.65562 | 31835 ft | 467 kts | 332° |
| 2026-05-09 14:29 | -4.62457 | 105.63952 | 31891 ft | 467 kts | 332° |
| 2026-05-09 14:30 | -4.56809 | 105.60742 | 31891 ft | 466 kts | 332° |
| 2026-05-09 14:30 | -4.51185 | 105.57532 | 31891 ft | 466 kts | 332° |
| 2026-05-09 14:31 | -4.45543 | 105.54323 | 31793 ft | 466 kts | 332° |
| 2026-05-09 14:31 | -4.42726 | 105.52721 | 31552 ft | 466 kts | 332° |
| 2026-05-09 14:31 | -4.39904 | 105.51119 | 31319 ft | 466 kts | 332° |
| 2026-05-09 14:32 | -4.37088 | 105.49516 | 31083 ft | 466 kts | 332° |
| 2026-05-09 14:32 | -4.34266 | 105.47907 | 30851 ft | 466 kts | 332° |
| 2026-05-09 14:32 | -4.31442 | 105.46298 | 30614 ft | 466 kts | 332° |
| 2026-05-09 14:32 | -4.28634 | 105.44701 | 30051 ft | 463 kts | 333° |
| 2026-05-09 14:33 | -4.25833 | 105.43110 | 29370 ft | 462 kts | 333° |
| 2026-05-09 14:33 | -4.23048 | 105.41530 | 28753 ft | 458 kts | 333° |
| 2026-05-09 14:33 | -4.20290 | 105.39964 | 28124 ft | 455 kts | 333° |
| 2026-05-09 14:33 | -4.17544 | 105.38405 | 27521 ft | 452 kts | 332° |
| 2026-05-09 14:34 | -4.14819 | 105.36860 | 26899 ft | 449 kts | 332° |
| 2026-05-09 14:34 | -4.12106 | 105.35321 | 26288 ft | 447 kts | 332° |
| 2026-05-09 14:34 | -4.09437 | 105.33807 | 25686 ft | 445 kts | 332° |
| 2026-05-09 14:34 | -4.06748 | 105.32284 | 25073 ft | 444 kts | 332° |
| 2026-05-09 14:35 | -4.04029 | 105.30755 | 24468 ft | 442 kts | 332° |
| 2026-05-09 14:35 | -4.01384 | 105.29276 | 23928 ft | 439 kts | 332° |
| 2026-05-09 14:35 | -3.98739 | 105.27782 | 23692 ft | 434 kts | 331° |
| 2026-05-09 14:35 | -3.96123 | 105.26281 | 23474 ft | 433 kts | 331° |
| 2026-05-09 14:36 | -3.93515 | 105.24780 | 23216 ft | 431 kts | 331° |
| 2026-05-09 14:36 | -3.90920 | 105.23290 | 22964 ft | 430 kts | 331° |
| 2026-05-09 14:36 | -3.88323 | 105.21814 | 22706 ft | 428 kts | 332° |
| 2026-05-09 14:36 | -3.85739 | 105.20359 | 22445 ft | 426 kts | 332° |
| 2026-05-09 14:37 | -3.83158 | 105.18912 | 22205 ft | 424 kts | 332° |
| 2026-05-09 14:37 | -3.80587 | 105.17471 | 21962 ft | 421 kts | 332° |
| 2026-05-09 14:37 | -3.78048 | 105.16049 | 21533 ft | 417 kts | 332° |
| 2026-05-09 14:37 | -3.75526 | 105.14637 | 21038 ft | 413 kts | 332° |
| 2026-05-09 14:38 | -3.73032 | 105.13238 | 20544 ft | 410 kts | 332° |
| 2026-05-09 14:38 | -3.70546 | 105.11843 | 20040 ft | 408 kts | 332° |
| 2026-05-09 14:38 | -3.68074 | 105.10456 | 19529 ft | 406 kts | 332° |
| 2026-05-09 14:38 | -3.65614 | 105.09073 | 19016 ft | 404 kts | 332° |
| 2026-05-09 14:39 | -3.63169 | 105.07700 | 18481 ft | 403 kts | 332° |
| 2026-05-09 14:39 | -3.60723 | 105.06328 | 17901 ft | 402 kts | 332° |
| 2026-05-09 14:39 | -3.58322 | 105.04982 | 17340 ft | 399 kts | 332° |
| 2026-05-09 14:39 | -3.55903 | 105.03628 | 16786 ft | 396 kts | 332° |
| 2026-05-09 14:40 | -3.53509 | 105.02287 | 16229 ft | 394 kts | 332° |
| 2026-05-09 14:40 | -3.51130 | 105.00943 | 15697 ft | 390 kts | 331° |
| 2026-05-09 14:40 | -3.48820 | 104.99578 | 15372 ft | 382 kts | 330° |
| 2026-05-09 14:40 | -3.46564 | 104.98200 | 15013 ft | 377 kts | 329° |
| 2026-05-09 14:41 | -3.44342 | 104.96824 | 14666 ft | 374 kts | 329° |
| 2026-05-09 14:41 | -3.42137 | 104.95459 | 14332 ft | 372 kts | 329° |
| 2026-05-09 14:41 | -3.39933 | 104.94107 | 14108 ft | 371 kts | 330° |
| 2026-05-09 14:41 | -3.37727 | 104.92760 | 13884 ft | 369 kts | 330° |
| 2026-05-09 14:42 | -3.35537 | 104.91428 | 13658 ft | 368 kts | 330° |
| 2026-05-09 14:42 | -3.33359 | 104.90103 | 13400 ft | 362 kts | 330° |
| 2026-05-09 14:42 | -3.31240 | 104.88813 | 13144 ft | 352 kts | 330° |
| 2026-05-09 14:42 | -3.29179 | 104.87559 | 12883 ft | 343 kts | 330° |
| 2026-05-09 14:43 | -3.27164 | 104.86332 | 12666 ft | 335 kts | 330° |
| 2026-05-09 14:43 | -3.25192 | 104.85130 | 12408 ft | 329 kts | 330° |
| 2026-05-09 14:43 | -3.23260 | 104.83952 | 12160 ft | 322 kts | 330° |
| 2026-05-09 14:43 | -3.21362 | 104.82796 | 11918 ft | 317 kts | 329° |
| 2026-05-09 14:44 | -3.19493 | 104.81659 | 11682 ft | 311 kts | 330° |
| 2026-05-09 14:44 | -3.17651 | 104.80542 | 11437 ft | 307 kts | 329° |
| 2026-05-09 14:44 | -3.15851 | 104.79450 | 11192 ft | 305 kts | 329° |
| 2026-05-09 14:44 | -3.14028 | 104.78343 | 10965 ft | 300 kts | 329° |
| 2026-05-09 14:45 | -3.12279 | 104.77279 | 10733 ft | 296 kts | 329° |
| 2026-05-09 14:45 | -3.10510 | 104.76202 | 10503 ft | 292 kts | 329° |
| 2026-05-09 14:45 | -3.08788 | 104.75151 | 10275 ft | 289 kts | 329° |
| 2026-05-09 14:45 | -3.07078 | 104.74105 | 10047 ft | 287 kts | 329° |
| 2026-05-09 14:46 | -3.05383 | 104.73071 | 9887 ft | 285 kts | 329° |
| 2026-05-09 14:46 | -3.03708 | 104.72050 | 9769 ft | 285 kts | 329° |
| 2026-05-09 14:46 | -3.02062 | 104.70904 | 9652 ft | 285 kts | 320° |
| 2026-05-09 14:46 | -3.00680 | 104.69514 | 9526 ft | 285 kts | 309° |
| 2026-05-09 14:47 | -2.99564 | 104.67881 | 9395 ft | 285 kts | 299° |
| 2026-05-09 14:47 | -2.98728 | 104.66044 | 9277 ft | 294 kts | 292° |
| 2026-05-09 14:47 | -2.97968 | 104.64142 | 9148 ft | 292 kts | 292° |
| 2026-05-09 14:47 | -2.97223 | 104.62284 | 9024 ft | 283 kts | 292° |
| 2026-05-09 14:48 | -2.96499 | 104.60482 | 8898 ft | 275 kts | 292° |
| 2026-05-09 14:48 | -2.95805 | 104.58725 | 8773 ft | 267 kts | 291° |
| 2026-05-09 14:48 | -2.95139 | 104.57022 | 8659 ft | 260 kts | 291° |
| 2026-05-09 14:48 | -2.94492 | 104.55364 | 8522 ft | 252 kts | 291° |
| 2026-05-09 14:49 | -2.93860 | 104.53742 | 8405 ft | 248 kts | 291° |
| 2026-05-09 14:49 | -2.93232 | 104.52132 | 8172 ft | 251 kts | 291° |
| 2026-05-09 14:49 | -2.92588 | 104.50486 | 7716 ft | 258 kts | 291° |
| 2026-05-09 14:49 | -2.91924 | 104.48785 | 7212 ft | 267 kts | 291° |
| 2026-05-09 14:50 | -2.91234 | 104.47020 | 6703 ft | 277 kts | 291° |
| 2026-05-09 14:50 | -2.90421 | 104.45238 | 6137 ft | 287 kts | 305° |
| 2026-05-09 14:50 | -2.88913 | 104.43927 | 5561 ft | 290 kts | 336° |
| 2026-05-09 14:50 | -2.86965 | 104.43547 | 4953 ft | 290 kts | 6° |
| 2026-05-09 14:51 | -2.85001 | 104.44084 | 4307 ft | 299 kts | 22° |
| 2026-05-09 14:51 | -2.83064 | 104.44822 | 4092 ft | 292 kts | 23° |
| 2026-05-09 14:51 | -2.81423 | 104.45878 | 4020 ft | 275 kts | 51° |
| 2026-05-09 14:51 | -2.80673 | 104.47549 | 3929 ft | 260 kts | 86° |
| 2026-05-09 14:52 | -2.80990 | 104.49257 | 3819 ft | 247 kts | 114° |
| 2026-05-09 14:52 | -2.81690 | 104.50776 | 3625 ft | 234 kts | 116° |
| 2026-05-09 14:52 | -2.82348 | 104.52227 | 3363 ft | 225 kts | 114° |
| 2026-05-09 14:52 | -2.82957 | 104.53657 | 3077 ft | 219 kts | 114° |
| 2026-05-09 14:53 | -2.83537 | 104.55037 | 2803 ft | 212 kts | 114° |
| 2026-05-09 14:53 | -2.84099 | 104.56373 | 2538 ft | 204 kts | 114° |
| 2026-05-09 14:53 | -2.84635 | 104.57647 | 2306 ft | 192 kts | 114° |
| 2026-05-09 14:53 | -2.85139 | 104.58844 | 2051 ft | 183 kts | 114° |
| 2026-05-09 14:54 | -2.85626 | 104.60001 | 1812 ft | 177 kts | 115° |
| 2026-05-09 14:54 | -2.86085 | 104.61093 | 1596 ft | 162 kts | 115° |
| 2026-05-09 14:54 | -2.86503 | 104.62085 | 1390 ft | 153 kts | 115° |
| 2026-05-09 14:54 | -2.86909 | 104.63050 | 1211 ft | 148 kts | 115° |
| 2026-05-09 14:55 | -2.87297 | 104.63972 | 1014 ft | 142 kts | 115° |
| 2026-05-09 14:55 | -2.87680 | 104.64882 | 827 ft | 141 kts | 114° |
| 2026-05-09 14:55 | -2.88063 | 104.65791 | 666 ft | 142 kts | 114° |
| 2026-05-09 14:55 | -2.88448 | 104.66706 | 481 ft | 143 kts | 113° |
| 2026-05-09 14:56 | -2.88839 | 104.67627 | 280 ft | 144 kts | 114° |
| 2026-05-09 14:56 | -2.89226 | 104.68549 | 58 ft | 143 kts | 113° |
| 2026-05-09 14:56 | -2.89588 | 104.69410 | 15 ft | 121 kts | 112° |
| 2026-05-09 14:56 | -2.89850 | 104.70035 | 21 ft | 72 kts | 112° |
| 2026-05-09 14:57 | -2.89979 | 104.70340 | 24 ft | 23 kts | 112° |
| 2026-05-09 14:57 | -2.90011 | 104.70421 | 21 ft | 12 kts | 108° |
| 2026-05-09 14:57 | -2.89963 | 104.70486 | 22 ft | 13 kts | 24° |
| 2026-05-09 14:57 | -2.89876 | 104.70523 | 24 ft | 14 kts | 22° |
| 2026-05-09 14:58 | -2.89781 | 104.70561 | 30 ft | 15 kts | 18° |
| 2026-05-09 14:58 | -2.89749 | 104.70531 | 28 ft | 11 kts | 291° |
| 2026-05-09 14:58 | -2.89706 | 104.70425 | 29 ft | 8 kts | 292° |
| 2026-05-09 14:58 | -2.89660 | 104.70416 | 28 ft | 9 kts | 26° |
| 2026-05-09 14:59 | -2.89617 | 104.70435 | 26 ft | 4 kts | 23° |
| 2026-05-09 14:59 | -2.89611 | 104.70438 | 30 ft | 2 kts | 23° |
| 2026-05-09 14:59 | -2.89608 | 104.70439 | 30 ft | 0 kts | 23° |